createdAt,value
2016-05-25T00:00:02.344Z,0
2016-05-25T00:01:02.206Z,0
2016-05-25T00:02:02.427Z,0
2016-05-25T00:03:17.118Z,0
2016-05-25T00:04:02.339Z,0
2016-05-25T00:05:02.186Z,0
2016-05-25T00:06:02.330Z,0
2016-05-25T00:07:16.347Z,0
2016-05-25T00:08:02.163Z,0
2016-05-25T00:09:02.869Z,0
2016-05-25T00:10:02.340Z,0
2016-05-25T00:11:02.327Z,0
2016-05-25T00:12:02.329Z,0
2016-05-25T00:13:02.316Z,0
2016-05-25T00:14:02.319Z,0
2016-05-25T00:15:02.165Z,0
2016-05-25T00:16:02.310Z,0
2016-05-25T00:17:02.171Z,0
2016-05-25T00:18:02.174Z,0
2016-05-25T00:19:02.317Z,0
2016-05-25T00:20:02.335Z,0
2016-05-25T00:21:02.323Z,0
2016-05-25T00:22:02.153Z,0
2016-05-25T00:23:02.312Z,0
2016-05-25T00:24:02.300Z,0
2016-05-25T00:25:02.303Z,0
2016-05-25T00:26:02.305Z,0
2016-05-25T00:27:03.979Z,0
2016-05-25T00:28:02.826Z,0
2016-05-25T00:29:03.579Z,0
2016-05-25T00:30:03.534Z,0
2016-05-25T00:31:02.944Z,0
2016-05-25T00:32:03.102Z,0
2016-05-25T00:33:02.355Z,0
2016-05-25T00:34:02.280Z,0
2016-05-25T00:35:02.188Z,0
2016-05-25T00:36:02.738Z,0
2016-05-25T00:37:03.271Z,0
2016-05-25T00:38:02.525Z,0
2016-05-25T00:39:03.637Z,0
2016-05-25T00:40:02.280Z,0
2016-05-25T00:41:02.283Z,0
2016-05-25T00:42:02.285Z,0
2016-05-25T00:43:02.116Z,0
2016-05-25T00:44:02.274Z,0
2016-05-25T00:45:02.309Z,0
2016-05-25T00:46:02.280Z,0
2016-05-25T00:47:02.549Z,0
2016-05-25T00:48:02.271Z,0
2016-05-25T00:49:02.273Z,0
2016-05-25T00:50:02.276Z,0
2016-05-25T00:51:02.262Z,0
2016-05-25T00:52:02.265Z,0
2016-05-25T00:53:02.268Z,0
2016-05-25T00:54:02.255Z,0
2016-05-25T00:55:02.259Z,0
2016-05-25T00:56:02.261Z,0
2016-05-25T00:57:02.247Z,0
2016-05-25T00:58:02.250Z,0
2016-05-25T00:59:02.097Z,0
2016-05-25T01:00:02.100Z,0
2016-05-25T01:01:02.086Z,0
2016-05-25T01:02:02.480Z,0
2016-05-25T01:03:02.092Z,0
2016-05-25T01:04:02.235Z,0
2016-05-25T01:05:02.253Z,0
2016-05-25T01:06:02.115Z,0
2016-05-25T01:07:02.227Z,0
2016-05-25T01:08:02.230Z,0
2016-05-25T01:09:02.233Z,0
2016-05-25T01:10:02.080Z,0
2016-05-25T01:11:02.222Z,0
2016-05-25T01:12:04.022Z,0
2016-05-25T01:13:03.071Z,0
2016-05-25T01:14:02.230Z,0
2016-05-25T01:15:02.374Z,0
2016-05-25T01:16:02.298Z,0
2016-05-25T01:17:02.145Z,0
2016-05-25T01:18:02.773Z,0
2016-05-25T01:19:02.416Z,0
2016-05-25T01:20:02.059Z,0
2016-05-25T01:21:02.218Z,0
2016-05-25T01:22:03.971Z,0
2016-05-25T01:23:16.379Z,0
2016-05-25T01:24:02.914Z,0
2016-05-25T01:25:02.260Z,0
2016-05-25T01:26:02.216Z,0
2016-05-25T01:27:02.298Z,0
2016-05-25T01:28:02.206Z,0
2016-05-25T01:29:02.459Z,0
2016-05-25T01:30:02.039Z,0
2016-05-25T01:31:02.198Z,0
2016-05-25T01:32:02.561Z,0
2016-05-25T01:33:02.188Z,0
2016-05-25T01:34:02.191Z,0
2016-05-25T01:35:02.194Z,0
2016-05-25T01:36:02.180Z,0
2016-05-25T01:37:02.199Z,0
2016-05-25T01:38:02.185Z,0
2016-05-25T01:39:02.188Z,0
2016-05-25T01:40:02.176Z,0
2016-05-25T01:41:02.038Z,0
2016-05-25T01:42:02.010Z,0
2016-05-25T01:43:02.168Z,0
2016-05-25T01:44:02.171Z,0
2016-05-25T01:45:02.189Z,0
2016-05-25T01:46:03.957Z,0
2016-05-25T01:47:02.007Z,0
2016-05-25T01:48:02.166Z,0
2016-05-25T01:49:03.060Z,0
2016-05-25T01:50:03.062Z,0
2016-05-25T01:51:02.001Z,0
2016-05-25T01:52:02.162Z,0
2016-05-25T01:53:02.273Z,0
2016-05-25T01:54:01.854Z,0
2016-05-25T01:55:03.247Z,0
2016-05-25T01:56:02.375Z,0
2016-05-25T01:57:03.206Z,0
2016-05-25T01:58:03.255Z,0
2016-05-25T01:59:03.055Z,0
2016-05-25T02:00:01.995Z,0
2016-05-25T02:01:02.561Z,0
2016-05-25T02:02:02.298Z,0
2016-05-25T02:03:02.144Z,0
2016-05-25T02:04:02.162Z,0
2016-05-25T02:05:01.821Z,0
2016-05-25T02:06:02.136Z,0
2016-05-25T02:07:01.827Z,0
2016-05-25T02:08:02.141Z,0
2016-05-25T02:09:02.128Z,0
2016-05-25T02:10:02.131Z,0
2016-05-25T02:11:02.119Z,0
2016-05-25T02:12:02.137Z,0
2016-05-25T02:13:02.124Z,0
2016-05-25T02:14:02.127Z,0
2016-05-25T02:15:02.129Z,0
2016-05-25T02:16:02.116Z,0
2016-05-25T02:17:02.728Z,0
2016-05-25T02:18:02.106Z,0
2016-05-25T02:19:01.952Z,0
2016-05-25T02:20:02.112Z,0
2016-05-25T02:21:01.942Z,0
2016-05-25T02:22:02.117Z,0
2016-05-25T02:23:02.120Z,0
2016-05-25T02:24:02.123Z,0
2016-05-25T02:25:02.093Z,4
2016-05-25T02:26:02.096Z,4
2016-05-25T02:27:02.098Z,0
2016-05-25T02:28:02.101Z,0
2016-05-25T02:29:02.088Z,4
2016-05-25T02:30:02.091Z,4
2016-05-25T02:31:04.141Z,4
2016-05-25T02:32:02.581Z,4
2016-05-25T02:33:02.397Z,8
2016-05-25T02:34:02.084Z,4
2016-05-25T02:35:02.683Z,8
2016-05-25T02:36:02.089Z,8
2016-05-25T02:37:02.092Z,8
2016-05-25T02:38:02.110Z,8
2016-05-25T02:39:02.066Z,12
2016-05-25T02:40:03.869Z,12
2016-05-25T02:41:03.121Z,8
2016-05-25T02:42:02.011Z,12
2016-05-25T02:43:16.252Z,12
2016-05-25T02:44:02.738Z,12
2016-05-25T02:45:02.066Z,16
2016-05-25T02:46:02.210Z,20
2016-05-25T02:47:02.478Z,20
2016-05-25T02:48:02.059Z,24
2016-05-25T02:49:02.062Z,28
2016-05-25T02:50:02.064Z,28
2016-05-25T02:51:01.926Z,32
2016-05-25T02:52:02.071Z,32
2016-05-25T02:53:01.915Z,36
2016-05-25T02:54:02.060Z,40
2016-05-25T02:55:02.046Z,40
2016-05-25T02:56:02.049Z,44
2016-05-25T02:57:01.896Z,52
2016-05-25T02:58:02.039Z,56
2016-05-25T02:59:02.042Z,64
2016-05-25T03:00:02.044Z,60
2016-05-25T03:01:01.875Z,68
2016-05-25T03:02:02.315Z,76
2016-05-25T03:03:02.100Z,76
2016-05-25T03:05:03.528Z,84
2016-05-25T03:06:03.107Z,92
2016-05-25T03:07:01.861Z,104
2016-05-25T03:08:02.238Z,112
2016-05-25T03:09:02.225Z,124
2016-05-25T03:10:02.008Z,120
2016-05-25T03:11:02.011Z,128
2016-05-25T03:12:02.013Z,140
2016-05-25T03:13:01.845Z,148
2016-05-25T03:14:02.925Z,164
2016-05-25T03:15:03.444Z,172
2016-05-25T03:16:03.087Z,184
2016-05-25T03:17:02.355Z,188
2016-05-25T03:18:02.624Z,184
2016-05-25T03:19:02.002Z,212
2016-05-25T03:20:02.504Z,236
2016-05-25T03:21:02.241Z,236
2016-05-25T03:22:02.088Z,264
2016-05-25T03:23:01.997Z,284
2016-05-25T03:24:01.827Z,276
2016-05-25T03:25:01.830Z,304
2016-05-25T03:26:01.974Z,320
2016-05-25T03:27:01.977Z,332
2016-05-25T03:28:01.979Z,376
2016-05-25T03:29:01.982Z,420
2016-05-25T03:30:01.968Z,452
2016-05-25T03:31:01.987Z,440
2016-05-25T03:32:02.146Z,436
2016-05-25T03:33:01.976Z,452
2016-05-25T03:34:01.979Z,460
2016-05-25T03:35:01.967Z,448
2016-05-25T03:36:01.797Z,456
2016-05-25T03:37:01.972Z,456
2016-05-25T03:38:01.803Z,492
2016-05-25T03:39:01.961Z,536
2016-05-25T03:40:01.949Z,532
2016-05-25T03:41:01.795Z,532
2016-05-25T03:42:01.797Z,572
2016-05-25T03:43:01.972Z,572
2016-05-25T03:44:01.788Z,572
2016-05-25T03:45:01.946Z,608
2016-05-25T03:46:01.949Z,596
2016-05-25T03:47:02.421Z,568
2016-05-25T03:48:01.471Z,576
2016-05-25T03:49:01.958Z,604
2016-05-25T03:50:03.382Z,624
2016-05-25T03:51:03.041Z,636
2016-05-25T03:52:02.824Z,616
2016-05-25T03:53:01.937Z,576
2016-05-25T03:54:02.283Z,612
2016-05-25T03:55:01.926Z,624
2016-05-25T03:56:01.930Z,704
2016-05-25T03:57:01.916Z,824
2016-05-25T03:58:01.763Z,804
2016-05-25T03:59:16.691Z,776
2016-05-25T04:00:01.769Z,840
2016-05-25T04:01:16.117Z,880
2016-05-25T04:02:02.851Z,884
2016-05-25T04:03:02.074Z,904
2016-05-25T04:04:16.095Z,956
2016-05-25T04:05:01.907Z,964
2016-05-25T04:06:01.910Z,952
2016-05-25T04:07:01.912Z,944
2016-05-25T04:08:01.899Z,972
2016-05-25T04:09:01.903Z,940
2016-05-25T04:10:01.905Z,920
2016-05-25T04:11:01.908Z,964
2016-05-25T04:12:01.910Z,1032
2016-05-25T04:13:01.897Z,1044
2016-05-25T04:14:01.900Z,1096
2016-05-25T04:15:01.887Z,1116
2016-05-25T04:16:01.889Z,1208
2016-05-25T04:17:02.533Z,1220
2016-05-25T04:18:01.894Z,1300
2016-05-25T04:19:01.882Z,1264
2016-05-25T04:20:01.751Z,1292
2016-05-25T04:21:01.622Z,1264
2016-05-25T04:22:01.789Z,1288
2016-05-25T04:23:03.988Z,1300
2016-05-25T04:24:03.170Z,1296
2016-05-25T04:25:02.025Z,1256
2016-05-25T04:26:02.005Z,1344
2016-05-25T04:27:02.016Z,1344
2016-05-25T04:28:02.324Z,1332
2016-05-25T04:29:02.820Z,1352
2016-05-25T04:30:02.029Z,1380
2016-05-25T04:31:02.019Z,1500
2016-05-25T04:32:02.072Z,1524
2016-05-25T04:33:03.358Z,1564
2016-05-25T04:34:02.849Z,1608
2016-05-25T04:35:01.868Z,1628
2016-05-25T04:36:02.840Z,1616
2016-05-25T04:37:02.220Z,1580
2016-05-25T04:38:02.051Z,1588
2016-05-25T04:39:02.337Z,1700
2016-05-25T04:40:02.356Z,1908
2016-05-25T04:41:02.030Z,1992
2016-05-25T04:42:02.034Z,2032
2016-05-25T04:43:02.021Z,2064
2016-05-25T04:44:02.023Z,2096
2016-05-25T04:45:02.043Z,2008
2016-05-25T04:46:01.873Z,2020
2016-05-25T04:47:01.704Z,2028
2016-05-25T04:48:02.020Z,2060
2016-05-25T04:49:01.865Z,2156
2016-05-25T04:50:02.025Z,2164
2016-05-25T04:51:02.043Z,2088
2016-05-25T04:52:01.702Z,2140
2016-05-25T04:53:02.033Z,2276
2016-05-25T04:54:02.019Z,2332
2016-05-25T04:55:02.007Z,2344
2016-05-25T04:56:02.009Z,2516
2016-05-25T04:57:01.855Z,2584
2016-05-25T04:58:01.999Z,2684
2016-05-25T04:59:02.017Z,2696
2016-05-25T05:00:01.989Z,2952
2016-05-25T05:01:01.852Z,3212
2016-05-25T05:02:02.307Z,2996
2016-05-25T05:03:01.685Z,2788
2016-05-25T05:04:01.985Z,2880
2016-05-25T05:05:01.987Z,2740
2016-05-25T05:06:01.990Z,2796
2016-05-25T05:07:01.835Z,2980
2016-05-25T05:08:04.026Z,3116
2016-05-25T05:09:16.015Z,3084
2016-05-25T05:10:02.328Z,3004
2016-05-25T05:12:01.990Z,3164
2016-05-25T05:13:02.446Z,3128
2016-05-25T05:14:01.979Z,2960
2016-05-25T05:15:01.826Z,3036
2016-05-25T05:16:01.985Z,2924
2016-05-25T05:17:01.973Z,2780
2016-05-25T05:18:03.522Z,2676
2016-05-25T05:19:01.978Z,2576
2016-05-25T05:20:01.980Z,2600
2016-05-25T05:21:02.827Z,2524
2016-05-25T05:22:02.017Z,2500
2016-05-25T05:23:02.082Z,2640
2016-05-25T05:24:02.381Z,2884
2016-05-25T05:25:01.759Z,2924
2016-05-25T05:26:01.965Z,2772
2016-05-25T05:27:01.984Z,2940
2016-05-25T05:28:01.970Z,3180
2016-05-25T05:29:01.802Z,3184
2016-05-25T05:30:01.960Z,3160
2016-05-25T05:31:01.963Z,3208
2016-05-25T05:32:01.966Z,3452
2016-05-25T05:33:01.953Z,3500
2016-05-25T05:34:01.955Z,3520
2016-05-25T05:35:01.943Z,3516
2016-05-25T05:36:01.946Z,3780
2016-05-25T05:37:01.964Z,4260
2016-05-25T05:38:01.951Z,4196
2016-05-25T05:39:01.954Z,4288
2016-05-25T05:40:01.956Z,4320
2016-05-25T05:41:01.818Z,4372
2016-05-25T05:42:03.962Z,4520
2016-05-25T05:43:02.120Z,4636
2016-05-25T05:44:02.326Z,4520
2016-05-25T05:45:02.015Z,4452
2016-05-25T05:46:03.691Z,4648
2016-05-25T05:47:02.709Z,4700
2016-05-25T05:48:02.306Z,4580
2016-05-25T05:49:02.059Z,4488
2016-05-25T05:50:01.951Z,4836
2016-05-25T05:52:03.520Z,5088
2016-05-25T05:53:01.928Z,5224
2016-05-25T05:54:02.712Z,5252
2016-05-25T05:55:03.027Z,4948
2016-05-25T05:56:05.156Z,4580
2016-05-25T05:57:02.439Z,4016
2016-05-25T05:58:01.958Z,3996
2016-05-25T05:59:01.929Z,4088
2016-05-25T06:00:01.775Z,4188
2016-05-25T06:01:03.169Z,4012
2016-05-25T06:02:01.952Z,4536
2016-05-25T06:03:01.924Z,4736
2016-05-25T06:04:01.927Z,4920
2016-05-25T06:05:01.788Z,4952
2016-05-25T06:06:03.979Z,5068
2016-05-25T06:07:01.935Z,4788
2016-05-25T06:08:01.921Z,4892
2016-05-25T06:09:01.941Z,4756
2016-05-25T06:10:01.755Z,4512
2016-05-25T06:11:01.915Z,4372
2016-05-25T06:12:01.933Z,4400
2016-05-25T06:13:01.920Z,4224
2016-05-25T06:14:01.923Z,4364
2016-05-25T06:15:01.768Z,4284
2016-05-25T06:16:01.771Z,4396
2016-05-25T06:17:01.790Z,5100
2016-05-25T06:18:03.808Z,5276
2016-05-25T06:19:01.905Z,5508
2016-05-25T06:20:01.923Z,5360
2016-05-25T06:21:01.909Z,5292
2016-05-25T06:22:01.913Z,4836
2016-05-25T06:23:01.900Z,5196
2016-05-25T06:24:01.918Z,4816
2016-05-25T06:25:01.749Z,4780
2016-05-25T06:26:01.923Z,4752
2016-05-25T06:27:30.272Z,5072
2016-05-25T06:28:03.491Z,5224
2016-05-25T06:29:01.900Z,5188
2016-05-25T06:30:01.902Z,5452
2016-05-25T06:31:02.468Z,5888
2016-05-25T06:32:02.111Z,5840
2016-05-25T06:33:02.005Z,5884
2016-05-25T06:34:01.898Z,6056
2016-05-25T06:35:01.745Z,6232
2016-05-25T06:37:02.344Z,5940
2016-05-25T06:38:01.894Z,6312
2016-05-25T06:39:02.599Z,5948
2016-05-25T06:40:02.680Z,5944
2016-05-25T06:41:02.135Z,5836
2016-05-25T06:42:01.889Z,5956
2016-05-25T06:43:03.219Z,6096
2016-05-25T06:44:01.894Z,6068
2016-05-25T06:45:01.896Z,6096
2016-05-25T06:46:01.727Z,6112
2016-05-25T06:47:01.901Z,6120
2016-05-25T06:48:01.732Z,5944
2016-05-25T06:49:01.579Z,6100
2016-05-25T06:50:01.737Z,6328
2016-05-25T06:51:01.882Z,6128
2016-05-25T06:52:01.728Z,5992
2016-05-25T06:53:01.902Z,5788
2016-05-25T06:54:01.890Z,5760
2016-05-25T06:55:01.876Z,5408
2016-05-25T06:56:01.723Z,5744
2016-05-25T06:57:01.882Z,5664
2016-05-25T06:58:01.728Z,5864
2016-05-25T06:59:01.872Z,5916
2016-05-25T07:00:01.874Z,6240
2016-05-25T07:01:02.017Z,6300
2016-05-25T07:02:01.880Z,6236
2016-05-25T07:03:04.930Z,6516
2016-05-25T07:04:02.478Z,6208
2016-05-25T07:05:02.810Z,6268
2016-05-25T07:06:02.063Z,6492
2016-05-25T07:07:02.596Z,6376
2016-05-25T07:08:01.880Z,6604
2016-05-25T07:09:01.883Z,6404
2016-05-25T07:10:03.135Z,6380
2016-05-25T07:11:01.872Z,6416
2016-05-25T07:12:01.891Z,6688
2016-05-25T07:13:01.877Z,6532
2016-05-25T07:14:02.693Z,6936
2016-05-25T07:15:01.883Z,7232
2016-05-25T07:16:01.823Z,6968
2016-05-25T07:17:02.263Z,6952
2016-05-25T07:18:05.454Z,7152
2016-05-25T07:19:01.894Z,7464
2016-05-25T07:20:01.709Z,7900
2016-05-25T07:21:01.712Z,8708
2016-05-25T07:22:01.559Z,8756
2016-05-25T07:23:03.984Z,8784
2016-05-25T07:24:01.736Z,7764
2016-05-25T07:25:01.707Z,7908
2016-05-25T07:26:01.866Z,8436
2016-05-25T07:27:01.869Z,8636
2016-05-25T07:28:01.872Z,9340
2016-05-25T07:29:01.858Z,9856
2016-05-25T07:30:01.861Z,10084
2016-05-25T07:31:01.864Z,9048
2016-05-25T07:32:02.320Z,8796
2016-05-25T07:33:01.869Z,9388
2016-05-25T07:34:01.856Z,9304
2016-05-25T07:35:01.875Z,8620
2016-05-25T07:36:01.705Z,8384
2016-05-25T07:37:01.865Z,8060
2016-05-25T07:38:01.711Z,7920
2016-05-25T07:39:01.714Z,7976
2016-05-25T07:40:01.857Z,7732
2016-05-25T07:41:01.891Z,7528
2016-05-25T07:42:01.721Z,7324
2016-05-25T07:43:01.865Z,7360
2016-05-25T07:44:01.868Z,7544
2016-05-25T07:45:01.871Z,7884
2016-05-25T07:46:03.513Z,7888
2016-05-25T07:47:03.094Z,8136
2016-05-25T07:48:03.738Z,8624
2016-05-25T07:49:02.521Z,9124
2016-05-25T07:50:01.869Z,8768
2016-05-25T07:51:01.855Z,8420
2016-05-25T07:52:02.015Z,8576
2016-05-25T07:53:05.157Z,8836
2016-05-25T07:54:01.723Z,8368
2016-05-25T07:55:02.538Z,7700
2016-05-25T07:56:01.713Z,7356
2016-05-25T07:57:02.668Z,7396
2016-05-25T07:58:10.123Z,8128
2016-05-25T07:59:02.268Z,8068
2016-05-25T08:00:01.864Z,8296
2016-05-25T08:01:02.256Z,8680
2016-05-25T08:02:01.916Z,8856
2016-05-25T08:03:02.653Z,8672
2016-05-25T08:04:01.890Z,8588
2016-05-25T08:05:01.862Z,9348
2016-05-25T08:06:01.724Z,9392
2016-05-25T08:07:01.711Z,9068
2016-05-25T08:08:01.730Z,10028
2016-05-25T08:09:01.872Z,10004
2016-05-25T08:10:01.860Z,9304
2016-05-25T08:11:01.863Z,9096
2016-05-25T08:12:01.866Z,8708
2016-05-25T08:13:03.289Z,8572
2016-05-25T08:14:01.885Z,8204
2016-05-25T08:15:01.873Z,7888
2016-05-25T08:16:01.719Z,7992
2016-05-25T08:17:01.738Z,8012
2016-05-25T08:18:01.928Z,7608
2016-05-25T08:19:03.477Z,7680
2016-05-25T08:20:03.512Z,7696
2016-05-25T08:21:02.311Z,8060
2016-05-25T08:22:03.063Z,8068
2016-05-25T08:23:03.426Z,8232
2016-05-25T08:24:01.866Z,8668
2016-05-25T08:25:02.165Z,8692
2016-05-25T08:26:02.074Z,8908
2016-05-25T08:27:01.873Z,8528
2016-05-25T08:28:03.861Z,8876
2016-05-25T08:29:02.645Z,9604
2016-05-25T08:30:02.945Z,10056
2016-05-25T08:31:02.494Z,10316
2016-05-25T08:32:01.887Z,10980
2016-05-25T08:33:04.062Z,11476
2016-05-25T08:34:01.878Z,11520
2016-05-25T08:35:02.458Z,11688
2016-05-25T08:36:01.664Z,12340
2016-05-25T08:37:01.885Z,12352
2016-05-25T08:38:05.717Z,12624
2016-05-25T08:39:01.875Z,12460
2016-05-25T08:40:01.878Z,12020
2016-05-25T08:41:01.880Z,12340
2016-05-25T08:42:01.883Z,12860
2016-05-25T08:43:03.089Z,13660
2016-05-25T08:44:01.872Z,13936
2016-05-25T08:45:01.875Z,14288
2016-05-25T08:46:01.566Z,13892
2016-05-25T08:47:02.349Z,13460
2016-05-25T08:48:02.524Z,13656
2016-05-25T08:49:01.886Z,14728
2016-05-25T08:50:01.576Z,14488
2016-05-25T08:51:01.735Z,14936
2016-05-25T08:52:01.894Z,15328
2016-05-25T08:53:04.554Z,16896
2016-05-25T08:54:01.884Z,16928
2016-05-25T08:55:01.887Z,16064
2016-05-25T08:56:01.890Z,15368
2016-05-25T08:57:01.907Z,14940
2016-05-25T08:58:03.801Z,14752
2016-05-25T08:59:01.898Z,14892
2016-05-25T09:00:01.901Z,14816
2016-05-25T09:01:01.590Z,15552
2016-05-25T09:02:01.921Z,16064
2016-05-25T09:03:02.924Z,16352
2016-05-25T09:04:01.911Z,19552
2016-05-25T09:05:01.757Z,22432
2016-05-25T09:06:01.917Z,22368
2016-05-25T09:07:01.919Z,19040
2016-05-25T09:08:03.547Z,19360
2016-05-25T09:09:01.909Z,19520
2016-05-25T09:10:01.755Z,17280
2016-05-25T09:11:01.774Z,15840
2016-05-25T09:12:01.933Z,15776
2016-05-25T09:13:03.030Z,14212
2016-05-25T09:14:01.782Z,12876
2016-05-25T09:15:01.941Z,11448
2016-05-25T09:16:01.772Z,10532
2016-05-25T09:17:02.275Z,10412
2016-05-25T09:18:03.542Z,10568
2016-05-25T09:19:01.936Z,11340
2016-05-25T09:20:01.954Z,11888
2016-05-25T09:21:01.785Z,12232
2016-05-25T09:22:01.944Z,11696
2016-05-25T09:23:03.291Z,11004
2016-05-25T09:24:01.965Z,10596
2016-05-25T09:25:01.952Z,11832
2016-05-25T09:26:01.970Z,13576
2016-05-25T09:27:01.801Z,14236
2016-05-25T09:28:03.412Z,14488
2016-05-25T09:29:01.978Z,13724
2016-05-25T09:30:01.981Z,18560
2016-05-25T09:31:01.968Z,19360
2016-05-25T09:32:01.971Z,19008
2016-05-25T09:33:01.864Z,17792
2016-05-25T09:34:01.992Z,14408
2016-05-25T09:35:01.823Z,11024
2016-05-25T09:36:01.669Z,11324
2016-05-25T09:37:01.844Z,13052
2016-05-25T09:38:03.471Z,12108
2016-05-25T09:39:02.006Z,11892
2016-05-25T09:40:02.758Z,11752
2016-05-25T09:41:02.900Z,11256
2016-05-25T09:42:02.639Z,11208
2016-05-25T09:43:03.611Z,11860
2016-05-25T09:44:02.581Z,12516
2016-05-25T09:45:02.005Z,13240
2016-05-25T09:46:01.868Z,13788
2016-05-25T09:47:04.824Z,15064
2016-05-25T09:48:04.295Z,18464
2016-05-25T09:49:03.672Z,17952
2016-05-25T09:50:02.285Z,15168
2016-05-25T09:51:02.975Z,12720
2016-05-25T09:52:02.212Z,11756
2016-05-25T09:53:02.355Z,11336
2016-05-25T09:54:01.905Z,11592
2016-05-25T09:55:02.032Z,12520
2016-05-25T09:56:02.035Z,14700
2016-05-25T09:57:01.725Z,14952
2016-05-25T09:58:01.729Z,13592
2016-05-25T09:59:02.028Z,12796
2016-05-25T10:00:02.045Z,11812
2016-05-25T10:01:02.033Z,10688
2016-05-25T10:02:01.973Z,10452
2016-05-25T10:03:03.710Z,10596
2016-05-25T10:04:01.916Z,11324
2016-05-25T10:05:02.200Z,12456
2016-05-25T10:06:02.297Z,13228
2016-05-25T10:07:02.064Z,13376
2016-05-25T10:08:03.927Z,12572
2016-05-25T10:09:02.055Z,12432
2016-05-25T10:10:02.104Z,12544
2016-05-25T10:11:02.200Z,12836
2016-05-25T10:12:02.063Z,13440
2016-05-25T10:13:02.066Z,14604
2016-05-25T10:14:02.364Z,16384
2016-05-25T10:15:03.524Z,17984
2016-05-25T10:16:02.074Z,19520
2016-05-25T10:17:02.202Z,21216
2016-05-25T10:18:02.611Z,20224
2016-05-25T10:19:01.925Z,17792
2016-05-25T10:20:02.084Z,15964
2016-05-25T10:21:01.946Z,16092
2016-05-25T10:22:02.090Z,16124
2016-05-25T10:23:02.093Z,14636
2016-05-25T10:24:02.110Z,13480
2016-05-25T10:25:02.114Z,13360
2016-05-25T10:26:02.929Z,13576
2016-05-25T10:27:02.103Z,13404
2016-05-25T10:28:02.107Z,13580
2016-05-25T10:29:02.109Z,13296
2016-05-25T10:30:01.814Z,13520
2016-05-25T10:31:06.848Z,14412
2016-05-25T10:32:03.038Z,14256
2016-05-25T10:33:01.979Z,13840
2016-05-25T10:34:02.122Z,14180
2016-05-25T10:35:02.125Z,14172
2016-05-25T10:36:03.674Z,13944
2016-05-25T10:37:02.145Z,13016
2016-05-25T10:38:02.133Z,11976
2016-05-25T10:39:01.979Z,11876
2016-05-25T10:40:02.138Z,12456
2016-05-25T10:41:05.656Z,13172
2016-05-25T10:42:02.159Z,16352
2016-05-25T10:43:02.006Z,22912
2016-05-25T10:44:01.852Z,28928
2016-05-25T10:45:02.166Z,32704
2016-05-25T10:46:02.169Z,33536
2016-05-25T10:47:02.188Z,30496
2016-05-25T10:48:02.050Z,25024
2016-05-25T10:49:02.194Z,21120
2016-05-25T10:50:02.180Z,21696
2016-05-25T10:51:02.183Z,23360
2016-05-25T10:52:02.186Z,22912
2016-05-25T10:53:02.189Z,21088
2016-05-25T10:54:02.207Z,18688
2016-05-25T10:55:02.054Z,17856
2016-05-25T10:56:02.197Z,18528
2016-05-25T10:57:02.371Z,20000
2016-05-25T10:58:03.171Z,19616
2016-05-25T10:59:03.032Z,17504
2016-05-25T11:00:02.223Z,16768
2016-05-25T11:01:02.554Z,17888
2016-05-25T11:02:03.681Z,20672
2016-05-25T11:03:02.388Z,20832
2016-05-25T11:04:02.249Z,18112
2016-05-25T11:05:01.924Z,16192
2016-05-25T11:06:04.255Z,15044
2016-05-25T11:07:03.429Z,14708
2016-05-25T11:08:02.104Z,14088
2016-05-25T11:09:02.247Z,13624
2016-05-25T11:10:02.265Z,13156
2016-05-25T11:11:02.284Z,12716
2016-05-25T11:12:02.662Z,12096
2016-05-25T11:13:01.992Z,11524
2016-05-25T11:14:02.275Z,10736
2016-05-25T11:15:02.294Z,10500
2016-05-25T11:16:02.297Z,10936
2016-05-25T11:17:02.441Z,11820
2016-05-25T11:18:03.787Z,11912
2016-05-25T11:19:02.306Z,10884
2016-05-25T11:20:02.152Z,9924
2016-05-25T11:21:02.154Z,10116
2016-05-25T11:22:02.158Z,10608
2016-05-25T11:23:05.129Z,10624
2016-05-25T11:24:16.507Z,10608
2016-05-25T11:25:02.649Z,10580
2016-05-25T11:26:16.669Z,10696
2016-05-25T11:27:02.530Z,10852
2016-05-25T11:28:04.407Z,11060
2016-05-25T11:29:02.348Z,11472
2016-05-25T11:30:02.444Z,11984
2016-05-25T11:31:02.493Z,12948
2016-05-25T11:32:02.621Z,14516
2016-05-25T11:33:07.374Z,14248
2016-05-25T11:34:16.534Z,11476
2016-05-25T11:35:03.099Z,9792
2016-05-25T11:36:02.382Z,8708
2016-05-25T11:37:02.416Z,8264
2016-05-25T11:38:04.951Z,7976
2016-05-25T11:39:02.265Z,7856
2016-05-25T11:40:02.206Z,7972
2016-05-25T11:41:02.381Z,8104
2016-05-25T11:42:02.383Z,8156
2016-05-25T11:43:02.386Z,8268
2016-05-25T11:44:02.231Z,8528
2016-05-25T11:45:02.406Z,8968
2016-05-25T11:46:02.394Z,9336
2016-05-25T11:47:02.240Z,9592
2016-05-25T11:48:03.884Z,9784
2016-05-25T11:49:02.245Z,9884
2016-05-25T11:50:02.389Z,9928
2016-05-25T11:51:02.391Z,9952
2016-05-25T11:52:02.097Z,9992
2016-05-25T11:53:02.413Z,9944
2016-05-25T11:54:02.399Z,9820
2016-05-25T11:55:02.402Z,9500
2016-05-25T11:56:02.436Z,9240
2016-05-25T11:57:02.423Z,9040
2016-05-25T11:58:02.269Z,8300
2016-05-25T11:59:02.429Z,7884
2016-05-25T12:00:02.119Z,7800
2016-05-25T12:01:02.449Z,7964
2016-05-25T12:02:02.140Z,8160
2016-05-25T12:03:03.174Z,9036
2016-05-25T12:04:02.286Z,10324
2016-05-25T12:05:02.132Z,11212
2016-05-25T12:06:02.447Z,11748
2016-05-25T12:07:02.434Z,11852
2016-05-25T12:08:02.437Z,11756
2016-05-25T12:09:02.456Z,11244
2016-05-25T12:10:02.443Z,10652
2016-05-25T12:11:02.320Z,10996
2016-05-25T12:12:02.447Z,11580
2016-05-25T12:13:02.295Z,11468
2016-05-25T12:14:02.453Z,10624
2016-05-25T12:15:03.628Z,9736
2016-05-25T12:16:04.161Z,9540
2016-05-25T12:17:03.320Z,9252
2016-05-25T12:18:02.620Z,8384
2016-05-25T12:19:02.873Z,7740
2016-05-25T12:20:02.814Z,7496
2016-05-25T12:21:02.410Z,7632
2016-05-25T12:22:02.850Z,8124
2016-05-25T12:23:02.478Z,9128
2016-05-25T12:24:02.308Z,10500
2016-05-25T12:25:03.108Z,11796
2016-05-25T12:26:03.860Z,12588
2016-05-25T12:27:03.769Z,12832
2016-05-25T12:28:03.054Z,15224
2016-05-25T12:29:03.322Z,16832
2016-05-25T12:30:02.480Z,16416
2016-05-25T12:31:02.483Z,17216
2016-05-25T12:32:02.345Z,16864
2016-05-25T12:33:02.582Z,16104
2016-05-25T12:34:02.335Z,15672
2016-05-25T12:35:02.338Z,15744
2016-05-25T12:36:02.496Z,15868
2016-05-25T12:37:02.499Z,15704
2016-05-25T12:38:04.299Z,15736
2016-05-25T12:39:02.505Z,15856
2016-05-25T12:40:02.507Z,14848
2016-05-25T12:41:02.495Z,13396
2016-05-25T12:42:03.716Z,11348
2016-05-25T12:43:04.562Z,10148
2016-05-25T12:44:02.518Z,10484
2016-05-25T12:45:02.506Z,11456
2016-05-25T12:46:03.273Z,12276
2016-05-25T12:47:03.339Z,13216
2016-05-25T12:48:02.420Z,13640
2016-05-25T12:49:02.361Z,14032
2016-05-25T12:50:02.520Z,14684
2016-05-25T12:51:17.927Z,13440
2016-05-25T12:52:02.539Z,13144
2016-05-25T12:53:06.449Z,13888
2016-05-25T12:54:02.545Z,14660
2016-05-25T12:55:02.533Z,15204
2016-05-25T12:56:02.394Z,15536
2016-05-25T12:57:02.896Z,15236
2016-05-25T12:58:02.603Z,14328
2016-05-25T12:59:02.543Z,13504
2016-05-25T13:00:02.546Z,12160
2016-05-25T13:01:02.563Z,10736
2016-05-25T13:02:02.411Z,8884
2016-05-25T13:03:02.288Z,7792
2016-05-25T13:04:02.415Z,7216
2016-05-25T13:05:02.591Z,7048
2016-05-25T13:06:02.406Z,7276
2016-05-25T13:07:02.409Z,7460
2016-05-25T13:08:02.582Z,7580
2016-05-25T13:09:02.570Z,8128
2016-05-25T13:10:02.572Z,8664
2016-05-25T13:11:02.576Z,8800
2016-05-25T13:12:02.422Z,9040
2016-05-25T13:13:02.596Z,8972
2016-05-25T13:14:02.584Z,8400
2016-05-25T13:15:02.601Z,7792
2016-05-25T13:16:02.276Z,7428
2016-05-25T13:17:02.436Z,7116
2016-05-25T13:18:05.328Z,6968
2016-05-25T13:19:02.456Z,7088
2016-05-25T13:20:02.600Z,7584
2016-05-25T13:21:02.618Z,8408
2016-05-25T13:22:02.605Z,9012
2016-05-25T13:23:02.608Z,8776
2016-05-25T13:24:02.297Z,8900
2016-05-25T13:25:02.463Z,9712
2016-05-25T13:26:02.645Z,10268
2016-05-25T13:27:02.671Z,10268
2016-05-25T13:28:02.542Z,10028
2016-05-25T13:29:02.723Z,9704
2016-05-25T13:30:02.746Z,9264
2016-05-25T13:31:02.772Z,8768
2016-05-25T13:32:02.768Z,8340
2016-05-25T13:33:02.623Z,8284
2016-05-25T13:34:04.228Z,8880